createdAt,value
2023-01-19T00:00:35.670Z,97539.19
2023-01-19T00:03:21.704Z,97545.53
2023-01-19T00:06:07.893Z,97548.31
2023-01-19T00:08:53.251Z,97556.63
2023-01-19T00:11:38.708Z,97550.28
2023-01-19T00:14:24.201Z,97551.09
2023-01-19T00:17:09.357Z,97548.75
2023-01-19T00:19:54.665Z,97562.63
2023-01-19T00:22:39.891Z,97557.06
2023-01-19T00:25:25.389Z,97563.38
2023-01-19T00:28:12.874Z,97565.41
2023-01-19T00:30:58.371Z,97565.41
2023-01-19T00:33:43.696Z,97569.41
2023-01-19T00:36:28.968Z,97565.84
2023-01-19T00:39:14.343Z,97567.09
2023-01-19T00:42:18.277Z,97571.88
2023-01-19T00:45:03.542Z,97572.63
2023-01-19T00:47:50.385Z,97577.41
2023-01-19T00:50:35.692Z,97584.16
2023-01-19T00:53:21.083Z,97588.50
2023-01-19T00:56:06.931Z,97585.72
2023-01-19T00:58:52.296Z,97598.03
2023-01-19T01:01:45.173Z,97596.50
2023-01-19T01:04:32.021Z,97593.72
2023-01-19T01:07:17.433Z,97592.16
2023-01-19T01:10:02.819Z,97597.25
2023-01-19T01:12:57.313Z,97597.25
2023-01-19T01:15:44.576Z,97597.72
2023-01-19T01:18:29.955Z,97602.03
2023-01-19T01:21:15.037Z,97598.47
2023-01-19T01:24:00.870Z,97610.38
2023-01-19T01:26:46.311Z,97613.13
2023-01-19T01:29:31.813Z,97610.38
2023-01-19T01:32:17.264Z,97607.59
2023-01-19T01:35:02.494Z,97608.03
2023-01-19T01:37:47.771Z,97610.81
2023-01-19T01:40:33.103Z,97611.56
2023-01-19T01:43:20.689Z,97610.81
2023-01-19T01:46:06.983Z,97610.81
2023-01-19T01:49:02.651Z,97610.38
2023-01-19T01:51:52.588Z,97622.22
2023-01-19T01:54:37.756Z,97618.69
2023-01-19T01:57:23.132Z,97623.44
2023-01-19T02:00:09.099Z,97623.44
2023-01-19T02:02:55.091Z,97628.22
2023-01-19T02:05:41.264Z,97619.91
2023-01-19T02:09:20.790Z,97621.91
2023-01-19T02:12:25.447Z,97621.91
2023-01-19T02:15:19.082Z,97625.13
2023-01-19T02:18:04.487Z,97630.66
2023-01-19T02:21:21.174Z,97635.44
2023-01-19T02:24:07.190Z,97640.22
2023-01-19T02:26:52.655Z,97649.75
2023-01-19T02:29:38.290Z,97644.22
2023-01-19T02:32:23.636Z,97662.41
2023-01-19T02:35:09.934Z,97656.09
2023-01-19T02:37:55.441Z,97654.53
2023-01-19T02:40:44.055Z,97658.06
2023-01-19T02:43:30.701Z,97662.09
2023-01-19T02:46:16.654Z,97657.78
2023-01-19T02:49:02.030Z,97652.22
2023-01-19T02:51:47.513Z,97645.13
2023-01-19T02:54:35.815Z,97647.91
2023-01-19T02:57:32.239Z,97656.97
2023-01-19T03:00:29.659Z,97650.66
2023-01-19T03:03:24.227Z,97660.66
2023-01-19T03:06:22.464Z,97665.78
2023-01-19T03:09:28.499Z,97671.00
2023-01-19T03:12:31.327Z,97673.28
2023-01-19T03:15:27.458Z,97662.22
2023-01-19T03:18:16.059Z,97656.34
2023-01-19T03:21:06.140Z,97665.78
2023-01-19T03:23:53.101Z,97673.78
2023-01-19T03:26:44.069Z,97685.63
2023-01-19T03:29:34.937Z,97687.63
2023-01-19T03:32:26.010Z,97699.03
2023-01-19T03:35:15.669Z,97687.97
2023-01-19T03:38:06.350Z,97693.50
2023-01-19T03:40:56.234Z,97688.41
2023-01-19T03:43:41.822Z,97693.50
2023-01-19T03:46:28.576Z,97692.69
2023-01-19T03:49:14.127Z,97691.16
2023-01-19T03:52:00.032Z,97705.81
2023-01-19T03:54:45.283Z,97701.50
2023-01-19T03:57:31.131Z,97697.94
2023-01-19T04:00:16.730Z,97695.94
2023-01-19T04:03:03.710Z,97702.69
2023-01-19T04:05:49.321Z,97697.16
2023-01-19T04:08:34.842Z,97702.69
2023-01-19T04:11:20.119Z,97701.16
2023-01-19T04:14:05.433Z,97706.72
2023-01-19T04:16:51.256Z,97708.72
2023-01-19T04:19:37.207Z,97702.38
2023-01-19T04:22:22.533Z,97704.38
2023-01-19T04:25:08.590Z,97696.84
2023-01-19T04:27:55.223Z,97692.53
2023-01-19T04:30:40.902Z,97700.84
2023-01-19T04:33:27.801Z,97692.53
2023-01-19T04:36:13.029Z,97693.75
2023-01-19T04:38:58.216Z,97688.19
2023-01-19T04:41:43.961Z,97689.44
2023-01-19T04:44:29.552Z,97696.97
2023-01-19T04:47:15.465Z,97704.06
2023-01-19T04:50:00.616Z,97708.06
2023-01-19T04:52:46.982Z,97699.59
2023-01-19T04:55:32.311Z,97696.72
2023-01-19T04:58:17.652Z,97706.00
2023-01-19T05:01:07.908Z,97705.84
2023-01-19T05:03:53.137Z,97697.84
2023-01-19T05:06:38.514Z,97700.63
2023-01-19T05:09:23.742Z,97698.63
2023-01-19T05:12:09.156Z,97699.75
2023-01-19T05:14:54.688Z,97702.38
2023-01-19T05:17:40.167Z,97702.56
2023-01-19T05:20:25.807Z,97715.50
2023-01-19T05:23:11.713Z,97703.06
2023-01-19T05:25:57.547Z,97703.25
2023-01-19T05:28:43.466Z,97702.31
2023-01-19T05:31:28.868Z,97701.41
2023-01-19T05:34:14.571Z,97702.72
2023-01-19T05:37:00.127Z,97699.94
2023-01-19T05:39:45.341Z,97699.94
2023-01-19T05:42:32.675Z,97694.72
2023-01-19T05:45:18.060Z,97685.94
2023-01-19T05:48:03.595Z,97688.25
2023-01-19T05:50:49.692Z,97676.69
2023-01-19T05:53:35.293Z,97689.50
2023-01-19T05:56:20.982Z,97688.47
2023-01-19T05:59:06.472Z,97693.88
2023-01-19T06:01:52.317Z,97687.41
2023-01-19T06:04:37.793Z,97690.50
2023-01-19T06:07:24.496Z,97697.56
2023-01-19T06:10:11.522Z,97692.31
2023-01-19T06:12:57.073Z,97689.66
2023-01-19T06:15:43.742Z,97693.97
2023-01-19T06:18:29.480Z,97693.28
2023-01-19T06:21:15.026Z,97694.31
2023-01-19T06:24:00.308Z,97699.22
2023-01-19T06:26:45.505Z,97714.34
2023-01-19T06:29:30.836Z,97718.78
2023-01-19T06:32:16.092Z,97716.00
2023-01-19T06:35:01.408Z,97723.09
2023-01-19T06:37:46.734Z,97729.75
2023-01-19T06:40:32.057Z,97728.53
2023-01-19T06:43:17.233Z,97738.06
2023-01-19T06:46:03.067Z,97734.97
2023-01-19T06:48:48.406Z,97735.41
2023-01-19T06:51:34.284Z,97739.88
2023-01-19T06:54:20.195Z,97750.97
2023-01-19T06:57:05.646Z,97744.66
2023-01-19T06:59:50.859Z,97745.44
2023-01-19T07:02:36.322Z,97752.06
2023-01-19T07:05:22.210Z,97747.00
2023-01-19T07:08:07.426Z,97750.84
2023-01-19T07:11:26.362Z,97755.75
2023-01-19T07:13:58.112Z,97760.53
2023-01-19T07:16:43.377Z,97766.97
2023-01-19T07:19:28.514Z,97764.19
2023-01-19T07:22:13.795Z,97764.34
2023-01-19T07:24:59.054Z,97767.13
2023-01-19T07:27:45.078Z,97765.25
2023-01-19T07:30:30.596Z,97774.34
2023-01-19T07:33:15.817Z,97773.25
2023-01-19T07:36:00.978Z,97782.03
2023-01-19T07:38:46.323Z,97773.81
2023-01-19T07:41:32.514Z,97786.91
2023-01-19T07:44:18.828Z,97786.16
2023-01-19T07:47:07.466Z,97788.78
2023-01-19T07:49:53.245Z,97794.31
2023-01-19T07:52:38.375Z,97799.56
2023-01-19T07:55:24.404Z,97798.44
2023-01-19T07:58:09.852Z,97798.91
2023-01-19T08:00:55.157Z,97795.81
2023-01-19T08:03:40.471Z,97795.34
2023-01-19T08:06:45.761Z,97801.69
2023-01-19T08:09:31.234Z,97807.56
2023-01-19T08:12:17.163Z,97801.56
2023-01-19T08:15:02.429Z,97806.66
2023-01-19T08:17:56.757Z,97809.31
2023-01-19T08:20:42.083Z,97810.84
2023-01-19T08:23:28.128Z,97809.16
2023-01-19T08:26:30.801Z,97814.59
2023-01-19T08:29:16.342Z,97820.91
2023-01-19T08:32:03.056Z,97815.38
2023-01-19T08:34:48.227Z,97811.06
2023-01-19T08:37:34.363Z,97812.59
2023-01-19T08:40:20.232Z,97815.69
2023-01-19T08:43:08.043Z,97813.69
2023-01-19T08:45:53.921Z,97816.78
2023-01-19T08:48:40.117Z,97821.13
2023-01-19T08:51:25.845Z,97819.13
2023-01-19T08:54:11.202Z,97815.09
2023-01-19T08:56:56.406Z,97819.88
2023-01-19T08:59:41.864Z,97823.75
2023-01-19T09:02:27.173Z,97823.75
2023-01-19T09:05:12.291Z,97828.09
2023-01-19T09:07:57.490Z,97827.28
2023-01-19T09:10:48.204Z,97818.19
2023-01-19T09:13:33.923Z,97825.31
2023-01-19T09:16:19.248Z,97814.22
2023-01-19T09:19:04.550Z,97820.19
2023-01-19T09:21:50.826Z,97822.97
2023-01-19T09:24:36.821Z,97829.28
2023-01-19T09:27:22.192Z,97830.53
2023-01-19T09:30:11.376Z,97834.84
2023-01-19T09:33:02.599Z,97816.66
2023-01-19T09:35:49.259Z,97815.41
2023-01-19T09:38:34.968Z,97815.41
2023-01-19T09:41:22.564Z,97823.75
2023-01-19T09:44:17.216Z,97819.44
2023-01-19T09:47:12.497Z,97820.97
2023-01-19T09:50:03.415Z,97810.31
2023-01-19T09:52:57.031Z,97809.22
2023-01-19T09:55:42.690Z,97813.56
2023-01-19T09:58:28.754Z,97813.56
2023-01-19T10:01:28.482Z,97810.78
2023-01-19T10:04:32.384Z,97804.78
2023-01-19T10:07:23.916Z,97807.09
2023-01-19T10:10:30.924Z,97797.56
2023-01-19T10:13:30.202Z,97796.31
2023-01-19T10:16:56.907Z,97787.25
2023-01-19T10:19:47.556Z,97796.31
2023-01-19T10:22:33.410Z,97783.69
2023-01-19T10:25:23.871Z,97782.47
2023-01-19T10:28:13.640Z,97786.00
2023-01-19T10:30:59.252Z,97786.00
2023-01-19T10:33:45.113Z,97782.47
2023-01-19T10:36:40.819Z,97782.00
2023-01-19T10:39:26.506Z,97778.47
2023-01-19T10:42:17.020Z,97784.03
2023-01-19T10:45:02.207Z,97782.78
2023-01-19T10:47:48.957Z,97776.00
2023-01-19T10:50:39.625Z,97782.78
2023-01-19T10:53:25.700Z,97776.91
2023-01-19T10:56:17.760Z,97782.47
2023-01-19T10:59:06.022Z,97788.00
2023-01-19T11:02:22.768Z,97789.56
2023-01-19T11:05:26.268Z,97785.22
2023-01-19T11:08:30.527Z,97787.56
2023-01-19T11:11:16.074Z,97784.78
2023-01-19T11:14:11.718Z,97783.09
2023-01-19T11:16:58.746Z,97786.31
2023-01-19T11:19:54.610Z,97791.44
2023-01-19T11:22:39.875Z,97788.66
2023-01-19T11:25:31.011Z,97781.09
2023-01-19T11:28:31.623Z,97778.31
2023-01-19T11:31:33.842Z,97782.66
2023-01-19T11:34:22.313Z,97776.31
2023-01-19T11:37:17.231Z,97780.66
2023-01-19T11:40:08.260Z,97773.09
2023-01-19T11:42:53.381Z,97771.09
2023-01-19T11:45:39.923Z,97764.78
2023-01-19T11:48:33.397Z,97769.06
2023-01-19T11:51:22.080Z,97770.19
2023-01-19T11:54:20.887Z,97775.75
2023-01-19T11:57:15.127Z,97780.50
2023-01-19T12:00:05.155Z,97781.28
2023-01-19T12:02:55.705Z,97778.53
2023-01-19T12:05:48.173Z,97774.19
2023-01-19T12:08:39.636Z,97772.66
2023-01-19T12:11:33.875Z,97774.19
2023-01-19T12:23:25.727Z,97766.09
2023-01-19T12:26:19.411Z,97765.63
2023-01-19T12:29:10.505Z,97760.84
2023-01-19T12:32:13.265Z,97753.31
2023-01-19T12:34:58.575Z,97764.41
2023-01-19T12:37:45.265Z,97765.94
2023-01-19T12:40:31.528Z,97769.94
2023-01-19T12:43:17.207Z,97763.97
2023-01-19T12:46:02.421Z,97761.63
2023-01-19T12:48:47.823Z,97778.28
2023-01-19T12:51:33.383Z,97771.16
2023-01-19T12:54:27.722Z,97778.72
2023-01-19T12:57:20.943Z,97778.03
2023-01-19T13:00:28.185Z,97786.84
2023-01-19T13:03:19.824Z,97781.75
2023-01-19T13:06:05.211Z,97773.53
2023-01-19T13:09:01.587Z,97779.25
2023-01-19T13:12:14.831Z,97776.91
2023-01-19T13:15:33.778Z,97768.59
2023-01-19T13:18:30.083Z,97767.38
2023-01-19T13:21:35.973Z,97765.22
2023-01-19T13:24:23.104Z,97757.69
2023-01-19T13:27:13.151Z,97748.56
2023-01-19T13:29:59.309Z,97752.59
2023-01-19T13:32:45.113Z,97750.56
2023-01-19T13:35:30.525Z,97762.44
2023-01-19T13:38:16.613Z,97761.22
2023-01-19T13:41:03.113Z,97762.44
2023-01-19T13:43:54.394Z,97762.44
2023-01-19T13:46:41.090Z,97761.22
2023-01-19T13:49:36.988Z,97757.69
2023-01-19T13:52:26.827Z,97764.00
2023-01-19T13:55:14.167Z,97768.00
2023-01-19T13:57:59.695Z,97764.44
2023-01-19T14:00:46.412Z,97760.13
2023-01-19T14:03:31.684Z,97764.91
2023-01-19T14:06:31.780Z,97760.25
2023-01-19T14:09:19.483Z,97757.94
2023-01-19T14:12:14.070Z,97762.38
2023-01-19T14:14:59.508Z,97766.41
2023-01-19T14:17:44.568Z,97770.38
2023-01-19T14:20:30.918Z,97777.19
2023-01-19T14:23:44.387Z,97781.63
2023-01-19T14:26:48.081Z,97783.63
2023-01-19T14:29:35.231Z,97783.63
2023-01-19T14:32:23.314Z,97778.88
2023-01-19T14:35:14.897Z,97780.84
2023-01-19T14:38:00.060Z,97777.31
2023-01-19T14:40:45.724Z,97785.19
2023-01-19T14:43:31.428Z,97780.84
2023-01-19T14:46:19.286Z,97783.63
2023-01-19T14:49:06.638Z,97785.19
2023-01-19T14:51:52.178Z,97780.41
2023-01-19T14:54:40.698Z,97776.09
2023-01-19T14:57:26.367Z,97789.47
2023-01-19T15:00:17.383Z,97787.19
2023-01-19T15:03:03.059Z,97786.72
2023-01-19T15:05:50.269Z,97788.06
2023-01-19T15:08:38.910Z,97783.75
2023-01-19T15:11:32.088Z,97802.84
2023-01-19T15:14:20.894Z,97811.94
2023-01-19T15:17:06.575Z,97811.63
2023-01-19T15:19:56.171Z,97810.06
2023-01-19T15:22:41.929Z,97808.50
2023-01-19T15:25:27.334Z,97804.53
2023-01-19T15:28:18.491Z,97815.94
2023-01-19T15:31:03.803Z,97816.41
2023-01-19T15:33:50.027Z,97821.94
2023-01-19T15:36:35.388Z,97824.28
2023-01-19T15:39:20.773Z,97822.59
2023-01-19T15:42:12.981Z,97832.00
2023-01-19T15:44:58.351Z,97838.31
2023-01-19T15:47:45.025Z,97833.53
2023-01-19T15:50:31.102Z,97838.22
2023-01-19T15:53:19.823Z,97838.53
2023-01-19T15:56:05.925Z,97837.28
2023-01-19T15:58:52.916Z,97845.94
2023-01-19T16:01:40.309Z,97838.59
2023-01-19T16:04:26.025Z,97842.13
2023-01-19T16:07:12.478Z,97841.69
2023-01-19T16:09:57.579Z,97847.56
2023-01-19T16:12:47.825Z,97845.56
2023-01-19T16:15:36.407Z,97855.41
2023-01-19T16:18:21.739Z,97847.88
2023-01-19T16:21:07.008Z,97855.75
2023-01-19T16:23:52.975Z,97852.56
2023-01-19T16:26:38.259Z,97858.97
2023-01-19T16:29:23.686Z,97862.09
2023-01-19T16:32:08.847Z,97864.53
2023-01-19T16:34:54.084Z,97871.22
2023-01-19T16:37:39.749Z,97869.19
2023-01-19T16:40:26.332Z,97864.41
2023-01-19T16:43:12.732Z,97869.53
2023-01-19T16:46:04.346Z,97877.53
2023-01-19T16:48:51.600Z,97874.75
2023-01-19T16:51:37.899Z,97874.41
2023-01-19T16:54:27.353Z,97879.94
2023-01-19T16:57:13.149Z,97876.41
2023-01-19T16:59:58.874Z,97880.84
2023-01-19T17:02:44.197Z,97889.94
2023-01-19T17:05:29.557Z,97885.16
2023-01-19T17:08:14.956Z,97884.50
2023-01-19T17:11:02.921Z,97875.88
2023-01-19T17:13:50.541Z,97880.66
2023-01-19T17:16:36.452Z,97890.97
2023-01-19T17:19:23.073Z,97891.31
2023-01-19T17:22:08.415Z,97889.19
2023-01-19T17:24:53.813Z,97890.72
2023-01-19T17:27:39.091Z,97890.63
2023-01-19T17:30:24.242Z,97900.81
2023-01-19T17:33:09.606Z,97895.25
2023-01-19T17:35:54.797Z,97903.16
2023-01-19T17:38:40.783Z,97911.81
2023-01-19T17:41:28.811Z,97908.56
2023-01-19T17:44:14.748Z,97915.66
2023-01-19T17:47:00.189Z,97908.75
2023-01-19T17:49:45.540Z,97914.63
2023-01-19T17:52:31.422Z,97912.84
2023-01-19T17:55:18.377Z,97924.56
2023-01-19T17:58:03.742Z,97920.91
2023-01-19T18:00:49.134Z,97919.22
2023-01-19T18:03:34.193Z,97921.88
2023-01-19T18:06:20.785Z,97918.94
2023-01-19T18:09:07.434Z,97920.03
2023-01-19T18:11:53.107Z,97920.50
2023-01-19T18:14:38.890Z,97918.50
2023-01-19T18:17:24.672Z,97916.03
2023-01-19T18:20:10.905Z,97925.59
2023-01-19T18:22:56.313Z,97926.06
2023-01-19T18:25:43.146Z,97917.41
2023-01-19T18:28:29.278Z,97928.03
2023-01-19T18:31:18.291Z,97918.63
2023-01-19T18:34:04.076Z,97918.63
2023-01-19T18:36:49.367Z,97927.41
2023-01-19T18:39:35.295Z,97932.50
2023-01-19T18:42:20.608Z,97934.38
2023-01-19T18:45:06.303Z,97933.59
2023-01-19T18:47:51.544Z,97933.91
2023-01-19T18:50:37.745Z,97931.47
2023-01-19T18:53:24.262Z,97931.78
2023-01-19T18:56:13.056Z,97924.09
2023-01-19T18:59:00.571Z,97934.88
2023-01-19T19:01:47.271Z,97927.00
2023-01-19T19:04:32.787Z,97925.59
2023-01-19T19:07:18.646Z,97926.81
2023-01-19T19:10:05.216Z,97924.66
2023-01-19T19:12:50.820Z,97934.19
2023-01-19T19:15:36.327Z,97943.44
2023-01-19T19:18:22.189Z,97945.88
2023-01-19T19:21:09.252Z,97946.31
2023-01-19T19:23:56.450Z,97954.31
2023-01-19T19:26:42.588Z,97946.47
2023-01-19T19:29:30.972Z,97949.38
2023-01-19T19:32:20.482Z,97947.78
2023-01-19T19:35:06.640Z,97949.16
2023-01-19T19:37:57.664Z,97955.63
2023-01-19T19:40:43.966Z,97959.31
2023-01-19T19:43:32.662Z,97962.06
2023-01-19T19:46:20.481Z,97960.19
2023-01-19T19:49:06.384Z,97972.97
2023-01-19T19:51:52.111Z,97970.63
2023-01-19T19:54:37.771Z,97965.56
2023-01-19T19:57:25.351Z,97970.75
2023-01-19T20:00:11.554Z,97976.41
2023-01-19T20:02:57.170Z,97985.19
2023-01-19T20:05:42.550Z,97985.63
2023-01-19T20:08:29.554Z,97988.41
2023-01-19T20:11:19.725Z,97986.84
2023-01-19T20:14:06.528Z,97986.84
2023-01-19T20:16:54.495Z,97993.19
2023-01-19T20:19:39.850Z,97998.75
2023-01-19T20:22:25.159Z,97996.41
2023-01-19T20:25:11.050Z,98001.94
2023-01-19T20:27:57.040Z,98006.72
2023-01-19T20:30:42.875Z,98005.16
2023-01-19T20:33:28.253Z,98004.41
2023-01-19T20:36:14.453Z,98010.72
2023-01-19T20:39:00.036Z,98008.41
2023-01-19T20:41:45.804Z,98017.16
2023-01-19T20:44:31.247Z,98023.16
2023-01-19T20:47:16.632Z,98011.72
2023-01-19T20:50:02.352Z,98017.41
2023-01-19T20:52:48.147Z,98015.06
2023-01-19T20:55:33.338Z,98015.06
2023-01-19T20:58:18.847Z,98017.50
2023-01-19T21:01:13.359Z,98030.19
2023-01-19T21:03:58.615Z,98021.53
2023-01-19T21:06:44.554Z,98025.50
2023-01-19T21:09:30.103Z,98036.59
2023-01-19T21:12:16.044Z,98040.59
2023-01-19T21:15:01.409Z,98043.06
2023-01-19T21:17:46.844Z,98046.25
2023-01-19T21:20:33.033Z,98050.28
2023-01-19T21:23:19.919Z,98051.03
2023-01-19T21:26:06.986Z,98058.13
2023-01-19T21:28:52.462Z,98058.13
2023-01-19T21:31:38.063Z,98062.47
2023-01-19T21:34:23.373Z,98065.25
2023-01-19T21:37:08.618Z,98062.03
2023-01-19T21:39:53.734Z,98060.47
2023-01-19T21:42:40.336Z,98061.22
2023-01-19T21:45:26.010Z,98064.00
2023-01-19T21:48:11.203Z,98062.81
2023-01-19T21:50:57.590Z,98066.78
2023-01-19T21:53:43.171Z,98063.22
2023-01-19T21:56:30.267Z,98068.34
2023-01-19T21:59:15.943Z,98069.56
2023-01-19T22:02:01.316Z,98073.56
2023-01-19T22:04:46.960Z,98074.00
2023-01-19T22:07:32.972Z,98076.44
2023-01-19T22:10:18.609Z,98075.66
2023-01-19T22:13:06.581Z,98078.44
2023-01-19T22:15:59.392Z,98080.44
2023-01-19T22:18:49.381Z,98086.00
2023-01-19T22:21:38.243Z,98085.22
2023-01-19T22:24:23.625Z,98076.56
2023-01-19T22:27:08.966Z,98088.44
2023-01-19T22:29:54.243Z,98087.66
2023-01-19T22:32:39.431Z,98082.88
2023-01-19T22:35:24.781Z,98080.88
2023-01-19T22:38:10.161Z,98080.09
2023-01-19T22:40:55.594Z,98095.97
2023-01-19T22:43:40.875Z,98098.75
2023-01-19T22:46:29.284Z,98089.19
2023-01-19T22:49:16.492Z,98090.75
2023-01-19T22:52:01.669Z,98089.19
2023-01-19T22:54:47.043Z,98086.09
2023-01-19T22:57:35.786Z,98086.44
2023-01-19T23:00:21.760Z,98089.97
2023-01-19T23:03:07.232Z,98084.88
2023-01-19T23:05:52.449Z,98091.63
2023-01-19T23:08:38.394Z,98093.63
2023-01-19T23:11:29.828Z,98088.53
2023-01-19T23:14:18.172Z,98093.63
2023-01-19T23:17:03.705Z,98088.53
2023-01-19T23:19:48.810Z,98090.09
2023-01-19T23:22:34.219Z,98098.06
2023-01-19T23:25:19.263Z,98097.31
2023-01-19T23:28:04.856Z,98090.97
2023-01-19T23:30:50.751Z,98093.41
2023-01-19T23:33:36.017Z,98093.75
2023-01-19T23:36:23.899Z,98085.41
2023-01-19T23:39:21.096Z,98086.22
2023-01-19T23:42:08.192Z,98087.00
2023-01-19T23:44:53.262Z,98082.97
2023-01-19T23:47:43.122Z,98079.09
2023-01-19T23:50:28.361Z,98084.66
2023-01-19T23:53:13.672Z,98083.44
2023-01-19T23:55:58.891Z,98083.44
2023-01-19T23:58:48.990Z,98083.88
